Villa Beach, Washington
Current Conditions -  °F | °C
As of 1:10 AM on Friday 19 Dec 2014 (Local Time) from KGRF Reporting Station
Drizzle Drizzle  
Wind Chill: 44°   Ceiling: Unl
Heat Index: 46°   Visibility: 10mi
Dew Point: 46°   Wind: 6mph
Humidity: 100%   Direction: 170°S
Pressure: 29.8"   Gusts: NA
Location:  47.1608°N, 122.692°W
Report Text: KGRF 190910Z AUTO 17005KT 10SM DZ FEW047 08/08 A2980 RMK AO2 DZB0858
Loading
Personal Weather Stations






























Interactive Weather Map New forecast layout! Learn more

10-Day Weather Forecast

Advertisements
Track Severe Weather on mobile